• Join FlightAware (Why Join?)
  • Login
  • US Flag 
11:06PM EDT


 

Airport Tracker/Info


-or-


 

Live Flight TrackerFlight Track Log ✈ AFL150 ✈ 21-Jul-2013 ✈ UUEE / SVO - MUHA / HAV

Flight Track Log - Related Links

Times and Time Zones

All times are in EDT time to prevent confusion due to time zone crossing. See the AFL150 flight status page for this flight to view local times or setup timezone preferences in your user account.

Time Position Orientation Groundspeed Altitude Reporting Facility
EDT Latitude Longitude Course Direction KTS MPH feet Rate Location/Type
06:50AM 55.9610 37.3500 255° West 179 206 2,400  Level FlightAware
06:50AM 55.9570 37.3210 256° West 188 216 2,900 1,080 Climbing FlightAware
06:51AM 55.9640 37.2570 281° West 218 251 3,500 1,200 Climbing FlightAware
06:51AM 55.9800 37.1930 294° West 255 293 4,400 1,800 Climbing FlightAware
06:51AM 55.9900 37.1540 295° West 260 299 5,200 2,400 Climbing FlightAware
06:52AM 56.0020 37.1050 294° West 265 305 6,200 2,580 Climbing FlightAware
06:53AM 56.0220 37.0250 294° West 269 310 8,000 2,580 Climbing FlightAware
06:53AM 56.0320 36.9840 294° West 271 312 8,800 2,220 Climbing FlightAware
06:53AM 56.0400 36.9520 294° West 278 320 9,300 1,800 Climbing FlightAware
06:54AM 56.0620 36.8650 294° West 300 345 10,500 1,320 Climbing FlightAware
06:55AM 56.0890 36.7540 294° West 348 400 11,200 1,020 Climbing FlightAware
06:55AM 56.1150 36.6770 301° West 369 425 11,800 1,440 Climbing FlightAware
06:55AM 56.1360 36.6530 328° Northwest 373 429 12,300 2,280 Climbing FlightAware
06:56AM 56.1900 36.6010 332° Northwest 377 434 13,700 2,280 Climbing FlightAware
06:57AM 56.2500 36.5380 330° Northwest 383 441 15,200 2,040 Climbing FlightAware
06:57AM 56.3210 36.4650 330° Northwest 397 457 16,600 1,860 Climbing FlightAware
06:58AM 56.3840 36.4000 330° Northwest 404 465 17,900 1,980 Climbing FlightAware
06:59AM 56.4510 36.3320 331° Northwest 411 473 19,300 1,680 Climbing FlightAware
06:59AM 56.5270 36.2530 330° Northwest 430 495 20,300 1,740 Climbing FlightAware
07:00AM 56.5950 36.1820 330° Northwest 426 490 21,800 1,680 Climbing FlightAware
07:01AM 56.6740 36.1000 330° Northwest 442 509 22,700 1,080 Climbing FlightAware
07:01AM 56.7440 36.0260 330° Northwest 456 525 23,400 1,320 Climbing FlightAware
07:02AM 56.8290 35.9360 330° Northwest 460 529 24,600 1,500 Climbing FlightAware
07:03AM 56.9020 35.8590 330° Northwest 465 535 25,600 1,260 Climbing FlightAware
07:04AM 56.9870 35.7680 330° Northwest 473 544 26,400 960 Climbing FlightAware
07:04AM 57.0630 35.6870 330° Northwest 484 557 27,000 960 Climbing FlightAware
07:05AM 57.1310 35.6130 329° Northwest 490 564 27,600 1,080 Climbing FlightAware
07:06AM 57.2080 35.5300 330° Northwest 494 568 28,400 1,080 Climbing FlightAware
07:06AM 57.2980 35.4320 330° Northwest 498 573 29,200 900 Climbing FlightAware
07:07AM 57.3960 35.3240 329° Northwest 506 582 29,900 840 Climbing FlightAware
07:08AM 57.4880 35.2230 329° Northwest 512 589 30,600 840 Climbing FlightAware
07:09AM 57.5680 35.1340 329° Northwest 517 595 31,100 660 Climbing FlightAware
07:09AM 57.6630 35.0280 329° Northwest 524 603 31,600 720 Climbing FlightAware
07:10AM 57.7420 34.9280 326° Northwest 529 609 32,200 900 Climbing FlightAware
07:12AM 57.9380 34.6620 324° Northwest 519 597 34,000 660 Climbing FlightAware
07:13AM 58.0160 34.5530 324° Northwest 514 592 34,000  Level FlightAware
07:13AM 58.1080 34.4240 323° Northwest 517 595 34,000  Level FlightAware
07:14AM 58.1850 34.3140 323° Northwest 518 596 34,000  Level FlightAware
07:15AM 58.2590 34.1630 313° West 516 594 34,000  Level FlightAware
07:15AM 58.3190 34.0170 308° West 515 593 34,000  Level FlightAware
07:16AM 58.3660 33.9040 308° West 515 593 34,000  Level FlightAware
07:17AM 58.4120 33.7920 308° West 515 593 34,000  Level FlightAware
07:17AM 58.4720 33.6450 308° West 515 593 34,000  Level FlightAware
07:18AM 58.5160 33.5350 307° West 515 593 34,000  Level FlightAware
07:19AM 58.5760 33.3890 308° West 515 593 34,000  Level FlightAware
07:19AM 58.6220 33.2750 308° West 515 593 34,000  Level FlightAware
07:20AM 58.6670 33.1650 308° West 515 593 34,000  Level FlightAware
07:21AM 58.7270 33.0170 308° West 515 593 34,000  Level FlightAware
07:21AM 58.7720 32.9060 308° West 515 593 34,000  Level FlightAware
07:22AM 58.8470 32.7220 308° West 515 593 34,000  Level FlightAware
07:23AM 58.8920 32.6100 308° West 515 593 34,000  Level FlightAware
07:24AM 58.9380 32.1420 281° West 478 550 34,000  Level FlightAware
07:25AM 58.9820 31.9370 293° West 480 552 34,000  Level FlightAware
07:26AM 59.0230 31.7410 292° West 485 558 34,100 360 Climbing FlightAware
07:26AM 59.0630 31.5550 293° West 495 570 34,600 720 Climbing FlightAware
07:27AM 59.0940 31.4080 292° West 491 565 35,000 300 Climbing FlightAware
07:28AM 59.1320 31.2280 292° West 476 548 35,000  Level FlightAware
07:28AM 59.1640 31.0730 292° West 479 551 35,000  Level FlightAware
07:29AM 59.2180 30.8090 292° West 481 554 35,000  Level FlightAware
07:30AM 59.2470 30.6670 292° West 478 550 35,000  Level FlightAware
07:31AM 59.2770 30.5170 291° West 476 548 35,000  Level FlightAware
07:31AM 59.3130 30.3380 292° West 476 548 35,000  Level FlightAware
07:32AM 59.3430 30.1890 292° West 475 547 35,000  Level FlightAware
07:33AM 59.3750 30.0270 291° West 476 548 35,000  Level FlightAware
07:34AM 59.4210 29.7890 291° West 475 547 35,000  Level FlightAware
07:34AM 59.4520 29.6280 291° West 474 545 35,000  Level FlightAware
07:35AM 59.4830 29.4670 291° West 473 544 35,000  Level FlightAware
07:36AM 59.5130 29.3100 291° West 471 542 35,000  Level FlightAware
07:36AM 59.5470 29.1270 290° West 470 541 35,000  Level FlightAware
07:37AM 59.5730 28.9860 290° West 470 541 35,000  Level FlightAware
07:38AM 59.6030 28.8280 291° West 470 541 35,000  Level FlightAware
07:38AM 59.6320 28.6400 287° West 469 540 35,000 -300 Level FlightAware
07:39AM 59.6570 28.4720 286° West 465 535 34,600 -660 Descending FlightAware
07:40AM 59.6800 28.3130 286° West 467 537 34,200 -480 Descending FlightAware
07:40AM 59.7070 28.1280 286° West 464 534 34,000 -180 Descending FlightAware
07:41AM 59.7290 27.9670 285° West 464 534 34,000  Level FlightAware
07:42AM 59.7560 27.7770 286° West 463 533 34,000  Level FlightAware
07:43AM 59.7780 27.6160 285° West 463 533 34,000  Level FlightAware
07:43AM 59.7980 27.4720 285° West 464 534 34,000  Level FlightAware
07:44AM 59.8200 27.3080 285° West 462 532 34,000  Level FlightAware
07:44AM 59.8420 27.1430 285° West 462 532 34,000  Level FlightAware
07:45AM 59.8630 26.9850 285° West 462 532 34,000  Level FlightAware
07:46AM 59.8880 26.7980 285° West 459 528 34,000  Level FlightAware
07:47AM 59.9120 26.6140 285° West 459 528 34,000  Level FlightAware
07:47AM 59.9290 26.4790 284° West 458 527 34,000  Level FlightAware
07:48AM 59.9570 26.3110 288° West 453 521 34,000  Level FlightAware
07:49AM 59.9980 26.1490 297° West 448 516 34,000  Level FlightAware
07:49AM 60.0410 26.0260 305° West 446 513 34,000  Level FlightAware
07:50AM 60.1010 25.8980 313° West 442 509 34,000  Level FlightAware
07:51AM 60.1520 25.7590 306° West 446 513 34,000  Level FlightAware
07:51AM 60.1930 25.6160 300° West 446 513 34,000  Level FlightAware
07:52AM 60.2270 25.4970 300° West 446 513 34,000  Level FlightAware
07:53AM 60.2830 25.3050 301° West 444 511 34,000  Level FlightAware
07:53AM 60.3260 25.1550 300° West 437 503 34,000  Level FlightAware
07:54AM 60.3880 25.0220 313° West 430 495 34,000  Level FlightAware
07:55AM 60.4310 24.9370 316° Northwest 429 494 34,000  Level FlightAware
07:55AM 60.4860 24.8280 316° Northwest 429 494 34,000  Level FlightAware
07:56AM 60.5430 24.7160 316° Northwest 428 493 34,000  Level FlightAware
07:57AM 60.5960 24.6120 316° Northwest 427 491 34,000  Level FlightAware
07:57AM 60.6570 24.4890 315° West 427 491 34,000  Level FlightAware
07:58AM 60.7080 24.3860 315° West 427 491 34,000  Level FlightAware
07:59AM 60.7680 24.2630 315° West 426 490 34,000  Level FlightAware
07:59AM 60.8160 24.1650 315° West 425 489 34,000  Level FlightAware
08:00AM 60.8680 24.0590 315° West 424 488 34,000  Level FlightAware
08:01AM 60.9350 23.9220 315° West 422 486 34,000  Level FlightAware
08:01AM 60.9890 23.8090 315° West 423 487 34,000  Level FlightAware
08:02AM 61.0510 23.6800 315° West 422 486 34,000  Level FlightAware
08:03AM 61.1050 23.5670 315° West 421 484 34,000  Level FlightAware
08:03AM 61.1530 23.4660 315° West 421 484 34,000  Level FlightAware
08:04AM 61.2160 23.3320 314° West 420 483 34,000  Level FlightAware
08:05AM 61.2700 23.2180 315° West 420 483 34,000  Level FlightAware
08:06AM 61.3320 23.0840 314° West 419 482 34,000  Level FlightAware
08:06AM 61.3870 22.9670 314° West 417 480 34,000  Level FlightAware
08:07AM 61.4460 22.8380 314° West 415 478 34,000  Level FlightAware
08:08AM 61.5010 22.7180 314° West 414 476 34,000  Level FlightAware
08:08AM 61.5550 22.6000 314° West 413 475 34,000  Level FlightAware
08:09AM 61.6060 22.4870 314° West 413 475 34,000  Level FlightAware
08:10AM 61.6600 22.3690 314° West 413 475 34,000  Level FlightAware
08:10AM 61.7110 22.2550 313° West 414 476 34,000  Level FlightAware
08:13AM 61.8080 21.7826 294° West  Level Estimated
08:13AM 61.8810 21.8710 294° West 416 479 34,000  Level FlightAware
08:13AM 61.9240 21.7740 313° West 411 473 34,000  Level FlightAware
08:14AM 62.0010 21.5980 313° West 411 473 34,000  Level FlightAware
08:15AM 62.0590 21.4640 313° West 409 471 34,000  Level FlightAware
08:15AM 62.1140 21.3370 313° West 409 471 34,000  Level FlightAware
08:16AM 62.1790 21.1860 313° West 412 474 34,000  Level FlightAware
08:17AM 62.2230 21.0820 312° West 412 474 34,000  Level FlightAware
08:18AM 62.2720 20.9670 313° West 410 472 34,000  Level FlightAware
08:18AM 62.3370 20.8110 312° West 408 470 34,000  Level FlightAware
08:19AM 62.3810 20.7070 312° West 408 470 34,000  Level FlightAware
08:19AM 62.4130 20.6300 312° West 408 470 34,000  Level FlightAware
08:20AM 62.4860 20.4530 312° West 409 471 34,000  Level FlightAware
08:21AM 62.5410 20.3200 312° West 410 472 34,000  Level FlightAware
08:22AM 62.5870 20.2090 312° West 411 473 34,000  Level FlightAware
08:22AM 62.6330 20.0950 311° West 412 474 34,000  Level FlightAware
08:23AM 62.6870 19.9630 312° West 412 474 34,000  Level FlightAware
08:24AM 62.7360 19.8400 311° West 411 473 34,000  Level FlightAware
08:24AM 62.7930 19.6980 311° West 404 465 34,000  Level FlightAware
08:25AM 62.8480 19.5590 311° West 405 466 34,000  Level FlightAware
08:26AM 62.8910 19.4520 311° West 405 466 34,000  Level FlightAware
08:27AM 62.9480 19.3080 311° West 404 465 34,000  Level FlightAware
08:27AM 62.9960 19.1830 310° West 401 461 34,000  Level FlightAware
08:28AM 63.0560 19.0300 311° West 399 459 34,000  Level FlightAware
08:29AM 63.1050 18.9020 310° West 403 464 34,000  Level FlightAware
08:29AM 63.1530 18.7790 311° West 402 463 34,000  Level FlightAware
08:30AM 63.1890 18.6840 310° West 402 463 34,000  Level FlightAware
08:31AM 63.2440 18.5400 310° West 401 461 34,000  Level FlightAware
08:31AM 63.2910 18.4150 310° West 403 464 34,000  Level FlightAware
08:32AM 63.3500 18.2580 310° West 404 465 34,000  Level FlightAware
08:33AM 63.3960 18.1350 310° West 404 465 34,000  Level FlightAware
08:34AM 63.4530 17.9820 310° West 400 460 34,000  Level FlightAware
08:34AM 63.4950 17.8670 309° West 399 459 34,000  Level FlightAware
08:35AM 63.5400 17.7450 310° West 399 459 34,000  Level FlightAware
08:36AM 63.5910 17.6040 309° West 401 461 34,000  Level FlightAware
08:36AM 63.6320 17.4920 310° West 405 466 34,000  Level FlightAware
08:37AM 63.6820 17.3530 309° West 412 474 34,000  Level FlightAware
08:38AM 63.7330 17.2110 309° West 412 474 34,000  Level FlightAware
08:38AM 63.7810 17.0770 309° West 412 474 34,000  Level FlightAware
08:39AM 63.8310 16.9350 309° West 411 473 34,000  Level FlightAware
08:40AM 63.8810 16.7930 309° West 409 471 34,000  Level FlightAware
08:40AM 63.9310 16.6500 309° West 409 471 34,000  Level FlightAware
08:41AM 63.9720 16.5330 309° West 411 473 34,000  Level FlightAware
08:42AM 64.0280 16.3690 308° West 410 472 34,000  Level FlightAware
08:42AM 64.0770 16.2270 308° West 406 467 34,000  Level FlightAware
08:43AM 64.1290 16.0730 308° West 407 468 34,000  Level FlightAware
08:44AM 64.1750 15.9370 308° West 409 471 34,000  Level FlightAware
08:45AM 64.2240 15.7930 308° West 410 472 34,000  Level FlightAware
08:45AM 64.2700 15.6560 308° West 409 471 34,000  Level FlightAware
08:46AM 64.3160 15.5150 307° West 409 471 34,000  Level FlightAware
08:47AM 64.3870 15.3020 308° West 407 468 34,000  Level FlightAware
08:48AM 64.4400 15.1390 307° West 403 464 34,000  Level FlightAware
08:48AM 64.4870 14.9940 307° West 401 461 34,000  Level FlightAware
08:49AM 64.5360 14.8410 307° West 406 467 34,000  Level FlightAware
08:50AM 64.5810 14.7010 307° West 403 464 34,000  Level FlightAware
08:50AM 64.6250 14.5620 306° West 404 465 34,000  Level FlightAware
08:51AM 64.6590 14.4560 307° West 401 461 34,000  Level FlightAware
08:52AM 64.6990 14.3310 307° West 399 459 34,000  Level FlightAware
08:52AM 64.7500 14.1660 306° West 396 456 34,000  Level FlightAware
08:53AM 64.7850 14.0550 307° West 393 452 34,000  Level FlightAware
08:54AM 64.8300 13.9070 306° West 391 450 34,000  Level FlightAware
08:54AM 64.8690 13.7830 307° West 388 447 34,000  Level FlightAware
08:55AM 64.9120 13.6410 306° West 387 445 34,000  Level FlightAware
08:56AM 64.9760 13.4310 306° West 390 449 34,000  Level FlightAware
08:57AM 65.0270 13.2590 305° West 390 449 34,000 60 Level FlightAware
08:57AM 65.0690 13.1190 305° West 392 451 34,100 360 Climbing FlightAware
08:58AM 65.1100 12.9810 305° West 398 458 34,500 540 Climbing FlightAware
08:59AM 65.1570 12.8230 305° West 399 459 34,900 480 Climbing FlightAware
08:59AM 65.1920 12.7010 304° West 404 465 35,200 480 Climbing FlightAware
09:00AM 65.2510 12.4980 305° West 417 480 35,600 420 Climbing FlightAware
09:01AM 65.3070 12.3050 305° West 423 487 36,000 240 Climbing FlightAware
09:02AM 65.3470 12.1650 304° West 423 487 36,000  Level FlightAware
09:02AM 65.3860 12.0280 304° West 422 486 36,000  Level FlightAware
09:03AM 65.4350 11.8550 304° West 421 484 36,000  Level FlightAware
09:04AM 65.4770 11.7030 304° West 420 483 36,000  Level FlightAware
09:04AM 65.5200 11.5500 304° West 419 482 36,000  Level FlightAware
09:05AM 65.5590 11.4070 303° West 417 480 36,000  Level FlightAware
09:06AM 65.5970 11.2690 304° West 417 480 36,000  Level FlightAware
09:06AM 65.6450 11.0950 304° West 418 481 36,000  Level FlightAware
09:07AM 65.6810 10.9610 303° West 418 481 36,000  Level FlightAware
09:08AM 65.7280 10.7880 304° West 418 481 36,000  Level FlightAware
09:09AM 65.7870 10.5640 303° West 417 480 36,000  Level FlightAware
09:09AM 65.8200 10.4400 303° West 417 480 36,000  Level FlightAware
09:10AM 65.8620 10.2790 303° West 417 480 36,000  Level FlightAware
09:12AM 65.9025 9.8133 282° West  Level Estimated
09:13AM 65.9254 9.5414 282° West  Level Estimated
09:13AM 66.0460 9.5600 282° West 417 480 36,000  Level FlightAware
09:14AM 66.0770 9.4370 302° West 417 480 36,000  Level FlightAware
09:15AM 66.1200 9.2680 302° West 417 480 36,000  Level FlightAware
09:15AM 66.1510 9.1450 302° West 417 480 36,000  Level FlightAware
09:16AM 66.1930 8.9790 302° West 417 480 36,000  Level FlightAware
09:17AM 66.2340 8.8140 302° West 417 480 36,000  Level FlightAware
09:17AM 66.2660 8.6860 302° West 417 480 36,000  Level FlightAware
09:18AM 66.3190 8.4790 303° West 417 480 36,000  Level FlightAware
09:19AM 66.3500 8.3540 302° West 417 480 36,000  Level FlightAware
09:20AM 66.3920 8.1840 302° West 417 480 36,000  Level FlightAware
09:22AM 66.4240 7.7285 280° West  Level Estimated
09:23AM 66.4430 7.4490 280° West  Level Estimated
09:24AM 66.4614 7.1692 279° West  Level Estimated
09:25AM 66.4794 6.8889 279° West  Level Estimated
09:26AM 66.4968 6.6082 279° West  Level Estimated
09:27AM 66.5137 6.3272 279° West  Level Estimated
09:28AM 66.5302 6.0457 278° West  Level Estimated
09:29AM 66.5461 5.7639 278° West  Level Estimated
09:30AM 66.5615 5.4818 278° West  Level Estimated
09:31AM 66.5765 5.1993 278° West  Level Estimated
09:32AM 66.5909 4.9164 277° West  Level Estimated
09:33AM 66.6048 4.6333 277° West  Level Estimated
09:34AM 66.6182 4.3498 277° West  Level Estimated
09:35AM 66.6310 4.0660 277° West  Level Estimated
09:36AM 66.6434 3.7820 276° West  Level Estimated
09:37AM 66.6553 3.4976 276° West  Level Estimated
09:38AM 66.6666 3.2130 276° West  Level Estimated
09:39AM 66.6774 2.9282 276° West  Level Estimated
09:40AM 66.6877 2.6431 275° West  Level Estimated
09:41AM 66.6975 2.3577 275° West  Level Estimated
09:42AM 66.7068 2.0722 275° West  Level Estimated
09:43AM 66.7155 1.7864 275° West  Level Estimated
09:44AM 66.7238 1.5004 274° West  Level Estimated
09:45AM 66.7315 1.2143 274° West  Level Estimated
09:46AM 66.7387 0.9280 274° West  Level Estimated
09:47AM 66.7454 0.6415 274° West  Level Estimated
09:48AM 66.7515 0.3548 273° West  Level Estimated
09:49AM 66.7572 0.0681 273° West  Level Estimated
09:50AM 66.7623 -0.2188 273° West  Level Estimated
09:51AM 66.7669 -0.5058 272° West  Level Estimated
09:52AM 66.7710 -0.7929 272° West  Level Estimated
09:53AM 66.7745 -1.0801 272° West  Level Estimated
09:54AM 66.7776 -1.3674 272° West  Level Estimated
09:55AM 66.7801 -1.6548 271° West  Level Estimated
09:56AM 66.7821 -1.9422 271° West  Level Estimated
09:57AM 66.7835 -2.2296 271° West  Level Estimated
09:58AM 66.7845 -2.5171 271° West  Level Estimated
09:59AM 66.7849 -2.8045 270° West  Level Estimated
10:00AM 66.7848 -3.0920 270° West  Level Estimated
10:01AM 66.7842 -3.3795 270° West  Level Estimated
10:02AM 66.7831 -3.6669 270° West  Level Estimated
10:03AM 66.7814 -3.9544 269° West  Level Estimated
10:04AM 66.7792 -4.2417 269° West  Level Estimated
10:05AM 66.7765 -4.5291 269° West  Level Estimated
10:06AM 66.7732 -4.8163 268° West  Level Estimated
10:07AM 66.7695 -5.1035 268° West  Level Estimated
10:08AM 66.7652 -5.3906 268° West  Level Estimated
10:09AM 66.7604 -5.6775 268° West  Level Estimated
10:10AM 66.7551 -5.9644 267° West  Level Estimated
10:11AM 66.7493 -6.2511 267° West  Level Estimated
10:12AM 66.7429 -6.5377 267° West  Level Estimated
10:13AM 66.7360 -6.8241 267° West  Level Estimated
10:14AM 66.7286 -7.1104 266° West  Level Estimated
10:15AM 66.7207 -7.3964 266° West  Level Estimated
10:16AM 66.7122 -7.6823 266° West  Level Estimated
10:17AM 66.7033 -7.9680 266° West  Level Estimated
10:18AM 66.6938 -8.2535 265° West  Level Estimated
10:19AM 66.6838 -8.5387 265° West  Level Estimated
10:20AM 66.6733 -8.8238 265° West  Level Estimated
10:21AM 66.6623 -9.1085 265° West  Level Estimated
10:22AM 66.6508 -9.3930 264° West  Level Estimated
10:23AM 66.6387 -9.6773 264° West  Level Estimated
10:24AM 66.6262 -9.9612 264° West  Level Estimated
10:25AM 66.6131 -10.2449 264° West  Level Estimated
10:26AM 66.5995 -10.5282 263° West  Level Estimated
10:27AM 66.5854 -10.8113 263° West  Level Estimated
10:28AM 66.5708 -11.0940 263° West  Level Estimated
10:29AM 66.5557 -11.3764 262° West  Level Estimated
10:30AM 66.5401 -11.6584 262° West  Level Estimated
10:31AM 66.5240 -11.9400 262° West  Level Estimated
10:32AM 66.5074 -12.2213 262° West  Level Estimated
10:33AM 66.4902 -12.5022 261° West  Level Estimated
10:34AM 66.4726 -12.7828 261° West  Level Estimated
10:35AM 66.4545 -13.0629 261° West  Level Estimated
10:36AM 66.4358 -13.3426 261° West  Level Estimated
10:37AM 66.4167 -13.6219 260° West  Level Estimated
10:38AM 66.3970 -13.9007 260° West  Level Estimated
10:39AM 66.3769 -14.1791 260° West  Level Estimated
10:40AM 66.3563 -14.4571 260° West  Level Estimated
10:41AM 66.3352 -14.7346 259° West  Level Estimated
10:42AM 66.3135 -15.0116 259° West  Level Estimated
10:43AM 66.2914 -15.2881 259° West  Level Estimated
10:44AM 66.2688 -15.5642 259° West  Level Estimated
10:45AM 66.2457 -15.8397 258° West  Level Estimated
10:46AM 66.2222 -16.1148 258° West  Level Estimated
10:47AM 66.1981 -16.3893 258° West  Level Estimated
10:48AM 66.1735 -16.6633 258° West  Level Estimated
10:49AM 66.1485 -16.9368 257° West  Level Estimated
10:50AM 66.1230 -17.2097 257° West  Level Estimated
10:51AM 66.0970 -17.4820 257° West  Level Estimated
10:52AM 66.0705 -17.7538 257° West  Level Estimated
10:53AM 66.0436 -18.0250 256° West  Level Estimated
10:54AM 66.0162 -18.2957 256° West  Level Estimated
10:55AM 65.9883 -18.5658 256° West  Level Estimated
10:56AM 65.9599 -18.8352 256° West  Level Estimated
10:57AM 65.9311 -19.1041 255° West  Level Estimated
10:58AM 65.9017 -19.3723 255° West  Level Estimated
10:59AM 65.8720 -19.6400 255° West  Level Estimated
11:00AM 65.8417 -19.9070 255° West  Level Estimated
11:01AM 65.8110 -20.1734 254° West  Level Estimated
11:02AM 65.7799 -20.4391 254° West  Level Estimated
11:03AM 65.7482 -20.7042 254° West  Level Estimated
11:04AM 65.7161 -20.9686 254° West  Level Estimated
11:05AM 65.6836 -21.2324 253° West  Level Estimated
11:06AM 65.6506 -21.4955 253° West  Level Estimated
11:07AM 65.6172 -21.7580 253° West  Level Estimated
11:08AM 65.5833 -22.0197 253° West  Level Estimated
11:09AM 65.5489 -22.2808 252° West  Level Estimated
11:10AM 65.5141 -22.5412 252° West  Level Estimated
11:11AM 65.4789 -22.8009 252° West  Level Estimated
11:12AM 65.4432 -23.0598 252° West  Level Estimated
11:13AM 65.4071 -23.3181 252° West  Level Estimated
11:14AM 65.3705 -23.5757 251° West  Level Estimated
11:15AM 65.3335 -23.8325 251° West  Level Estimated
11:16AM 65.2961 -24.0886 251° West  Level Estimated
11:17AM 65.2582 -24.3440 251° West  Level Estimated
11:18AM 65.2199 -24.5986 250° West  Level Estimated
11:19AM 65.1812 -24.8525 250° West  Level Estimated
11:20AM 65.1420 -25.1057 250° West  Level Estimated
11:21AM 65.1024 -25.3581 250° West  Level Estimated
11:22AM 65.0624 -25.6097 249° West  Level Estimated
11:23AM 65.0220 -25.8606 249° West  Level Estimated
11:24AM 64.9811 -26.1108 249° West  Level Estimated
11:25AM 64.9399 -26.3601 249° West  Level Estimated
11:26AM 64.8982 -26.6087 249° West  Level Estimated
11:27AM 64.8561 -26.8565 248° West  Level Estimated
11:28AM 64.8136 -27.1036 248° West  Level Estimated
11:29AM 64.7707 -27.3498 248° West  Level Estimated
11:30AM 64.7274 -27.5953 248° West  Level Estimated
11:31AM 64.6837 -27.8400 247° West  Level Estimated
11:32AM 64.6395 -28.0839 247° West  Level Estimated
11:33AM 64.5950 -28.3270 247° West  Level Estimated
11:34AM 64.5501 -28.5693 247° West  Level Estimated
11:35AM 64.5048 -28.8108 247° West  Level Estimated
11:36AM 64.4590 -29.0515 246° West  Level Estimated
11:37AM 64.4129 -29.2914 246° West  Level Estimated
11:38AM 64.3664 -29.5304 246° West  Level Estimated
11:39AM 64.3195 -29.7687 246° West  Level Estimated
11:40AM 64.2723 -30.0062 245° Southwest  Level Estimated
11:41AM 64.2246 -30.2428 245° Southwest  Level Estimated
11:42AM 64.1766 -30.4786 245° Southwest  Level Estimated
11:43AM 64.1282 -30.7136 245° Southwest  Level Estimated
11:44AM 64.0794 -30.9478 245° Southwest  Level Estimated
11:45AM 64.0302 -31.1812 244° Southwest  Level Estimated
11:46AM 63.9807 -31.4137 244° Southwest  Level Estimated
11:47AM 63.9307 -31.6455 244° Southwest  Level Estimated
11:48AM 63.8805 -31.8763 244° Southwest  Level Estimated
11:49AM 63.8276 -32.1164 244° Southwest  Level Estimated
11:50AM 63.7743 -32.3556 243° Southwest  Level Estimated
11:51AM 63.7207 -32.5939 243° Southwest  Level Estimated
11:52AM 63.6666 -32.8313 243° Southwest  Level Estimated
11:53AM 63.6122 -33.0677 243° Southwest  Level Estimated
11:54AM 63.5574 -33.3033 242° Southwest  Level Estimated
11:55AM 63.5021 -33.5379 242° Southwest  Level Estimated
11:56AM 63.4465 -33.7717 242° Southwest  Level Estimated
11:57AM 63.3906 -34.0045 242° Southwest  Level Estimated
11:58AM 63.3342 -34.2365 242° Southwest  Level Estimated
11:59AM 63.2775 -34.4675 241° Southwest  Level Estimated
12:00PM 63.2204 -34.6976 241° Southwest  Level Estimated
12:01PM 63.1629 -34.9268 241° Southwest  Level Estimated
12:02PM 63.1051 -35.1551 241° Southwest  Level Estimated
12:03PM 63.0469 -35.3825 241° Southwest  Level Estimated
12:04PM 62.9883 -35.6089 240° Southwest  Level Estimated
12:05PM 62.9294 -35.8345 240° Southwest  Level Estimated
12:06PM 62.8701 -36.0591 240° Southwest  Level Estimated
12:07PM 62.8105 -36.2829 240° Southwest  Level Estimated
12:08PM 62.7505 -36.5057 240° Southwest  Level Estimated
12:09PM 62.6902 -36.7276 239° Southwest  Level Estimated
12:10PM 62.6295 -36.9487 239° Southwest  Level Estimated
12:11PM 62.5684 -37.1688 239° Southwest  Level Estimated
12:12PM 62.5070 -37.3880 239° Southwest  Level Estimated
12:13PM 62.4453 -37.6063 239° Southwest  Level Estimated
12:14PM 62.3832 -37.8237 238° Southwest  Level Estimated
12:15PM 62.3208 -38.0402 238° Southwest  Level Estimated
12:16PM 62.2581 -38.2558 238° Southwest  Level Estimated
12:17PM 62.1950 -38.4705 238° Southwest  Level Estimated
12:18PM 62.1316 -38.6843 238° Southwest  Level Estimated
12:19PM 62.0679 -38.8973 237° Southwest  Level Estimated
12:20PM 62.0038 -39.1093 237° Southwest  Level Estimated
12:21PM 61.9395 -39.3204 237° Southwest  Level Estimated
12:22PM 61.8748 -39.5306 237° Southwest  Level Estimated
12:23PM 61.8097 -39.7400 237° Southwest  Level Estimated
12:24PM 61.7444 -39.9484 237° Southwest  Level Estimated
12:25PM 61.6787 -40.1560 236° Southwest  Level Estimated
12:26PM 61.6128 -40.3627 236° Southwest  Level Estimated
12:27PM 61.5465 -40.5685 236° Southwest  Level Estimated
12:28PM 61.4799 -40.7735 236° Southwest  Level Estimated
12:29PM 61.4130 -40.9775 236° Southwest  Level Estimated
12:30PM 61.3458 -41.1807 235° Southwest  Level Estimated
12:31PM 61.2783 -41.3830 235° Southwest  Level Estimated
12:32PM 61.2105 -41.5845 235° Southwest  Level Estimated
12:33PM 61.1424 -41.7850 235° Southwest  Level Estimated
12:34PM 61.0740 -41.9847 235° Southwest  Level Estimated
12:35PM 61.0053 -42.1836 235° Southwest  Level Estimated
12:36PM 60.9364 -42.3816 234° Southwest  Level Estimated
12:37PM 60.8671 -42.5787 234° Southwest  Level Estimated
12:38PM 60.7976 -42.7750 234° Southwest  Level Estimated
12:39PM 60.7277 -42.9704 234° Southwest  Level Estimated
12:40PM 60.6576 -43.1650 234° Southwest  Level Estimated
12:41PM 60.5872 -43.3587 234° Southwest  Level Estimated
12:42PM 60.5165 -43.5516 233° Southwest  Level Estimated
12:43PM 60.4456 -43.7436 233° Southwest  Level Estimated
12:43PM 62.3360 -49.0770 233° Southwest 445 512 37,000  Level FlightAware
12:44PM 60.3743 -43.9348 233° Southwest  Level Estimated
12:44PM 62.2800 -49.2310 232° Southwest 445 512 37,000  Level FlightAware
12:45PM 62.1970 -49.4640 233° Southwest 445 512 37,000  Level FlightAware
12:46PM 62.1390 -49.6220 232° Southwest 446 513 37,000  Level FlightAware
12:46PM 62.1000 -49.7290 232° Southwest 446 513 37,000  Level FlightAware
12:47PM 62.0600 -49.8380 232° Southwest 446 513 37,000  Level FlightAware
12:47PM 61.9950 -50.0130 232° Southwest 447 514 37,000  Level FlightAware
12:49PM 61.9160 -50.2560 235° Southwest 446 513 37,000  Level FlightAware
12:49PM 61.8780 -50.3690 235° Southwest 446 513 37,000  Level FlightAware
12:50PM 61.8200 -50.5540 236° Southwest 442 509 37,000  Level FlightAware
12:51PM 61.7690 -50.7090 235° Southwest 442 509 37,000  Level FlightAware
12:51PM 61.7340 -50.8170 236° Southwest 442 509 37,000  Level FlightAware
12:52PM 61.6860 -50.9610 235° Southwest 442 509 37,000  Level FlightAware
12:53PM 61.6480 -51.0750 235° Southwest 442 509 37,000  Level FlightAware
12:53PM 61.6120 -51.1830 235° Southwest 442 509 37,000  Level FlightAware
12:54PM 61.5750 -51.2940 235° Southwest 442 509 37,000  Level FlightAware
12:55PM 61.5130 -51.4790 235° Southwest 442 509 37,000  Level FlightAware
12:56PM 61.4650 -51.6220 235° Southwest 442 509 37,000  Level FlightAware
12:57PM 61.4070 -51.7950 235° Southwest 442 509 37,000  Level FlightAware
12:57PM 61.3720 -51.9020 236° Southwest 442 509 37,000  Level FlightAware
12:58PM 61.3230 -52.0470 235° Southwest 442 509 37,000  Level FlightAware
12:59PM 61.2870 -52.1540 235° Southwest 442 509 37,000  Level FlightAware
01:00PM 61.2410 -52.2900 235° Southwest 442 509 37,000  Level FlightAware
01:02PM 61.1043 -52.6701 233° Southwest  Level FlightAware Approximate
01:03PM 61.0331 -52.8654 233° Southwest  Level FlightAware Approximate
01:04PM 60.9617 -53.0598 233° Southwest  Level FlightAware Approximate
01:05PM 60.8900 -53.2533 233° Southwest  Level FlightAware Approximate
01:06PM 60.8180 -53.4460 233° Southwest  Level FlightAware Approximate
01:07PM 60.7457 -53.6378 232° Southwest  Level FlightAware Approximate
01:08PM 60.6732 -53.8288 232° Southwest  Level FlightAware Approximate
01:09PM 60.6004 -54.0189 232° Southwest  Level FlightAware Approximate
01:10PM 60.5273 -54.2081 232° Southwest  Level FlightAware Approximate
01:11PM 60.4540 -54.3965 232° Southwest  Level FlightAware Approximate
01:12PM 60.3804 -54.5840 232° Southwest  Level FlightAware Approximate
01:13PM 60.3065 -54.7707 231° Southwest  Level FlightAware Approximate
01:14PM 60.2291 -54.9567 230° Southwest  Level FlightAware Approximate
01:15PM 60.1515 -55.1419 230° Southwest  Level FlightAware Approximate
01:16PM 60.0736 -55.3262 230° Southwest  Level FlightAware Approximate
01:17PM 59.9954 -55.5096 230° Southwest  Level FlightAware Approximate
01:18PM 59.9170 -55.6922 229° Southwest  Level FlightAware Approximate
01:19PM 59.8384 -55.8739 229° Southwest  Level FlightAware Approximate
01:19PM 59.6333 -56.3500 228° Southwest 460 529 37,000  Level Gander Center
01:20PM 59.7595 -56.0547 229° Southwest  Level FlightAware Approximate
01:20PM 59.5500 -56.5500 231° Southwest 450 518 37,000  Level Gander Center
01:21PM 59.6803 -56.2347 229° Southwest  Level FlightAware Approximate
01:21PM 59.4833 -56.7333 234° Southwest 450 518 37,000  Level Gander Center
01:22PM 59.6009 -56.4139 229° Southwest  Level FlightAware Approximate
01:22PM 59.4000 -56.9333 231° Southwest 460 529 37,000  Level Gander Center
01:23PM 59.5213 -56.5922 229° Southwest  Level FlightAware Approximate
01:23PM 59.3000 -57.1000 220° Southwest 460 529 37,000  Level Gander Center
01:24PM 59.4414 -56.7696 229° Southwest  Level FlightAware Approximate
01:24PM 59.2333 -57.3167 239° Southwest 460 529 37,000  Level Gander Center
01:25PM 59.3612 -56.9462 228° Southwest  Level FlightAware Approximate
01:25PM 59.1500 -57.4833 226° Southwest 470 541 37,000  Level Gander Center
01:26PM 59.0500 -57.6833 226° Southwest 460 529 37,000  Level Gander Center
01:27PM 58.9833 -57.8500 232° Southwest 460 529 37,000  Level Gander Center
01:28PM 58.9000 -58.0500 231° Southwest 460 529 37,000  Level Gander Center
01:29PM 58.8167 -58.2333 229° Southwest 460 529 37,000  Level Gander Center
01:30PM 58.7167 -58.4333 226° Southwest 460 529 37,000  Level Gander Center
01:31PM 58.6500 -58.6167 235° Southwest 460 529 37,000  Level Gander Center
01:32PM 58.5500 -58.7833 221° Southwest 460 529 37,000  Level Gander Center
01:33PM 58.4500 -58.9333 218° Southwest 460 529 37,000  Level Gander Center
01:34PM 58.3333 -59.0667 211° Southwest 460 529 37,000  Level Gander Center
01:35PM 58.2333 -59.2000 215° Southwest 460 529 37,000  Level Gander Center
01:36PM 58.1167 -59.3000 204° Southwest 450 518 37,000  Level Gander Center
01:37PM 58.0000 -59.4333 211° Southwest 460 529 37,000  Level Gander Center
01:38PM 57.9167 -59.5167 208° Southwest 450 518 37,000  Level Gander Center
01:39PM 57.8000 -59.6500 211° Southwest 450 518 37,000  Level Gander Center
01:40PM 57.6833 -59.7833 211° Southwest 450 518 37,000  Level Gander Center
01:41PM 57.5833 -59.8833 208° Southwest 450 518 37,000  Level Gander Center
01:42PM 57.4667 -60.0167 212° Southwest 450 518 37,000  Level Gander Center
01:43PM 57.3500 -60.1333 208° Southwest 460 529 37,000  Level Gander Center
01:44PM 57.2500 -60.2333 208° Southwest 450 518 37,000  Level Gander Center
01:45PM 57.1333 -60.3667 212° Southwest 460 529 37,000  Level Gander Center
01:46PM 57.0167 -60.4833 209° Southwest 460 529 37,000  Level Gander Center
01:47PM 56.9167 -60.5833 209° Southwest 450 518 37,000  Level Gander Center
01:48PM 56.8000 -60.7000 209° Southwest 440 506 37,000  Level Gander Center
01:49PM 56.7000 -60.8333 216° Southwest 440 506 37,000  Level Gander Center
01:50PM 56.5833 -60.9167 201° Southwest 440 506 37,000  Level Gander Center
01:51PM 56.4833 -61.0333 213° Southwest 440 506 37,000  Level Gander Center
01:52PM 56.3667 -61.1333 205° Southwest 440 506 37,000  Level Gander Center
01:53PM 56.2500 -61.2500 209° Southwest 450 518 37,000  Level Gander Center
01:54PM 56.1500 -61.3500 209° Southwest 450 518 37,000  Level Gander Center
01:55PM 56.0500 -61.4333 205° Southwest 450 518 37,000  Level Gander Center
01:56PM 55.9333 -61.5500 209° Southwest 450 518 37,000  Level Gander Center
01:57PM 55.8333 -61.6667 213° Southwest 440 506 37,000  Level Gander Center
01:58PM 55.7167 -61.7500 202° Southwest 450 518 37,000  Level Gander Center
01:59PM 55.6000 -61.8667 209° Southwest 440 506 37,000  Level Gander Center
02:00PM 55.5000 -61.9667 210° Southwest 450 518 37,000  Level Gander Center
02:01PM 55.3833 -62.0833 210° Southwest 450 518 37,000  Level Gander Center
02:02PM 55.2833 -62.1833 210° Southwest 440 506 37,000  Level Gander Center
02:03PM 55.1667 -62.2833 206° Southwest 450 518 37,000  Level Gander Center
02:04PM 55.0667 -62.3667 206° Southwest 450 518 37,000  Level Gander Center
02:05PM 54.9500 -62.4667 206° Southwest 450 518 37,000 120 Level Gander Center
02:06PM 54.8500 -62.5833 214° Southwest 450 518 37,300 480 Climbing Gander Center
02:07PM 54.7333 -62.6667 202° Southwest 440 506 38,000 300 Climbing Gander Center
02:08PM 54.6167 -62.7833 210° Southwest 450 518 38,000  Level Gander Center
02:09PM 54.5000 -62.8667 203° Southwest 450 518 38,000  Level Gander Center
02:10PM 54.3833 -62.9833 210° Southwest 450 518 38,000  Level Gander Center
02:11PM 54.2833 -63.0833 210° Southwest 440 506 38,000  Level Gander Center
02:12PM 54.1667 -63.1667 203° Southwest 440 506 38,000  Level Gander Center
02:13PM 54.0667 -63.2833 214° Southwest 440 506 38,000  Level Gander Center
02:14PM 53.9500 -63.3500 199° South 440 506 38,000  Level Gander Center
02:15PM 53.8500 -63.4333 206° Southwest 450 518 38,000  Level Gander Center
02:16PM 53.7333 -63.5500 211° Southwest 440 506 38,000  Level Gander Center
02:17PM 53.6167 -63.6167 199° South 440 506 38,000  Level Gander Center
02:18PM 53.5000 -63.7333 211° Southwest 440 506 38,000  Level Gander Center
02:19PM 53.4000 -63.8333 211° Southwest 440 506 38,000  Level Gander Center
02:20PM 53.2833 -63.9167 203° Southwest 450 518 38,000  Level Gander Center
02:21PM 53.1833 -64.0167 211° Southwest 440 506 38,000  Level Gander Center
02:22PM 53.0667 -64.1000 203° Southwest 450 518 38,000  Level Gander Center
02:23PM 52.9667 -64.2000 211° Southwest 450 518 38,000  Level Gander Center
02:24PM 52.8333 -64.2667 197° South 450 518 38,000  Level Gander Center
02:25PM 52.7333 -64.3833 215° Southwest 450 518 38,000  Level Gander Center
02:26PM 52.6167 -64.4500 199° South 450 518 38,000  Level Gander Center
02:27PM 52.5000 -64.5500 208° Southwest 440 506 38,000  Level Gander Center
02:28PM 52.4000 -64.6500 211° Southwest 440 506 38,000  Level Gander Center
02:29PM 52.3000 -64.7333 207° Southwest 440 506 38,000  Level Gander Center
02:30PM 52.1667 -64.8333 205° Southwest 440 506 38,000  Level Gander Center
02:31PM 52.0667 -64.9000 202° Southwest 440 506 38,000  Level Gander Center
02:32PM 51.9667 -64.9667 202° Southwest 440 506 38,000  Level Gander Center
02:33PM 51.8500 -65.0667 208° Southwest 440 506 38,000  Level Gander Center
02:34PM 51.7500 -65.1500 207° Southwest 440 506 38,000  Level Gander Center
02:35PM 51.6167 -65.2500 205° Southwest 430 495 38,000  Level Gander Center
02:36PM 51.5167 -65.3167 203° Southwest 430 495 38,000  Level Gander Center
02:37PM 51.4000 -65.4167 208° Southwest 430 495 38,000  Level Gander Center
02:38PM 51.3000 -65.4833 203° Southwest 430 495 38,000  Level Gander Center
02:39PM 51.2000 -65.5833 212° Southwest 430 495 38,000  Level Gander Center
02:40PM 51.0833 -65.6500 200° South 430 495 38,000  Level Gander Center
02:41PM 50.9833 -65.7167 203° Southwest 430 495 38,000  Level Gander Center
02:42PM 50.8667 -65.8167 208° Southwest 430 495 38,000  Level Gander Center
02:43PM 50.7667 -65.8833 203° Southwest 430 495 38,000  Level Gander Center
02:44PM 50.6667 -65.9500 203° Southwest 430 495 38,000  Level Gander Center
02:50PM 50.1850 -66.3190 203° Southwest 33,300  Descending FlightAware
02:50PM 50.0000 -66.3833 203° Southwest 430 495 38,000 2,640 Climbing Gander Center
02:51PM 49.8833 -66.4500 200° South 430 495 38,000  Level Gander Center
02:52PM 49.7833 -66.5167 203° Southwest 430 495 38,000  Level Gander Center
02:53PM 49.6833 -66.5833 203° Southwest 420 483 38,000  Level Gander Center
02:54PM 49.5667 -66.6500 200° South 420 483 38,000  Level Gander Center
02:55PM 49.4500 -66.7167 200° South 420 483 38,000  Level Gander Center
02:56PM 49.3333 -66.7667 196° South 420 483 38,000  Level Gander Center
02:57PM 49.2333 -66.8167 198° South 420 483 38,000  Level Gander Center
02:58PM 49.1167 -66.8833 201° Southwest 420 483 38,000  Level Gander Center
02:59PM 49.0167 -66.9500 204° Southwest 410 472 38,000  Level Gander Center
03:00PM 48.9000 -66.9833 191° South 410 472 38,000  Level Gander Center
03:01PM 48.8000 -67.0500 204° Southwest 410 472 38,000  Level Gander Center
03:02PM 48.7000 -67.1167 204° Southwest 420 483 38,000  Level Gander Center
03:03PM 48.5833 -67.1667 196° South 420 483 38,000  Level Gander Center
03:09PM 48.0050 -67.4770 196° South 38,000  Level FlightAware
03:09PM 47.9167 -67.5167 196° South 410 472 38,000  Level Gander Center
03:10PM 47.8167 -67.5833 204° Southwest 410 472 38,000  Level Gander Center
03:11PM 47.7167 -67.6167 193° South 420 483 38,000  Level Gander Center
03:17PM 47.3290 -67.8200 193° South 38,000  Level FlightAware
03:18PM 46.9580 -68.0040 199° South 412 474 38,000  Level FlightAware
03:19PM 46.9150 -68.0250 198° South 412 474 38,000  Level FlightAware
03:19PM 46.8600 -68.0510 198° South 412 474 38,000  Level FlightAware
03:20PM 46.7690 -68.0970 199° South 411 473 38,000  Level FlightAware
03:21PM 46.6840 -68.1340 197° South 414 476 38,000  Level FlightAware
03:21PM 46.6460 -68.1500 196° South 414 476 38,000  Level FlightAware
03:22PM 46.5320 -68.1950 195° South 410 472 38,000  Level FlightAware
03:23PM 46.4360 -68.2350 196° South 404 465 38,000  Level FlightAware
03:24PM 46.3600 -68.2670 196° South 406 467 38,000  Level FlightAware
03:25PM 46.2780 -68.3000 196° South 415 478 38,000  Level FlightAware
03:25PM 46.2120 -68.3270 196° South 418 481 38,000  Level FlightAware
03:26PM 46.1580 -68.3490 196° South 420 483 38,000  Level FlightAware
03:26PM 46.0810 -68.3810 196° South 415 478 38,000  Level FlightAware
03:27PM 46.0070 -68.4110 196° South 416 479 38,000  Level FlightAware
03:28PM 45.9320 -68.4410 196° South 416 479 38,000  Level FlightAware
03:29PM 45.8280 -68.4840 196° South 417 480 38,000  Level FlightAware
03:29PM 45.7530 -68.5140 196° South 418 481 38,000  Level FlightAware
03:30PM 45.6770 -68.5440 195° South 417 480 38,000  Level FlightAware
03:31PM 45.6010 -68.5740 195° South 420 483 38,000  Level FlightAware
03:31PM 45.5440 -68.5970 196° South 419 482 38,000  Level FlightAware
03:32PM 45.4900 -68.6190 196° South 420 483 38,000  Level FlightAware
03:32PM 45.4050 -68.6530 196° South 419 482 38,000  Level FlightAware
03:33PM 45.3200 -68.6860 195° South 420 483 38,000  Level FlightAware
03:34PM 45.2530 -68.7130 196° South 419 482 38,000  Level FlightAware
03:34PM 45.1700 -68.7460 196° South 420 483 38,000  Level FlightAware
03:35PM 45.0880 -68.7780 195° South 417 480 38,000  Level FlightAware
03:36PM 45.0140 -68.8070 195° South 415 478 38,000  Level FlightAware
03:37PM 44.9290 -68.8400 195° South 417 480 38,000  Level FlightAware
03:37PM 44.8530 -68.8710 196° South 415 478 38,000  Level FlightAware
03:38PM 44.8040 -68.8990 202° Southwest 406 467 38,000  Level FlightAware
03:38PM 44.7360 -68.9460 206° Southwest 402 463 38,000  Level FlightAware
03:39PM 44.6610 -68.9970 206° Southwest 401 461 38,000  Level FlightAware
03:40PM 44.5990 -69.0400 206° Southwest 401 461 38,000  Level FlightAware
03:40PM 44.5310 -69.0860 206° Southwest 401 461 38,000  Level FlightAware
03:41PM 44.4660 -69.1300 206° Southwest 402 463 38,000  Level FlightAware
03:42PM 44.4000 -69.1750 206° Southwest 399 459 38,000  Level FlightAware
03:42PM 44.3290 -69.2220 205° Southwest 397 457 38,000  Level FlightAware
03:43PM 44.2620 -69.2670 206° Southwest 397 457 38,000  Level FlightAware
03:44PM 44.2120 -69.3000 205° Southwest 395 455 38,000  Level FlightAware
03:44PM 44.1440 -69.3460 206° Southwest 392 451 38,000  Level FlightAware
03:45PM 44.0830 -69.3870 206° Southwest 393 452 38,000  Level FlightAware
03:46PM 44.0200 -69.4280 205° Southwest 392 451 38,000  Level FlightAware
03:46PM 43.9540 -69.4730 206° Southwest 392 451 38,000  Level FlightAware
03:47PM 43.8940 -69.5120 205° Southwest 393 452 38,000  Level FlightAware
03:48PM 43.8070 -69.5690 205° Southwest 397 457 38,000  Level FlightAware
03:48PM 43.7370 -69.6160 206° Southwest 397 457 38,000  Level FlightAware
03:49PM 43.6870 -69.6490 206° Southwest 397 457 38,000  Level FlightAware
03:50PM 43.6200 -69.6920 205° Southwest 396 456 38,000  Level FlightAware
03:50PM 43.5630 -69.7290 205° Southwest 397 457 38,000  Level FlightAware
03:51PM 43.5010 -69.7700 206° Southwest 399 459 38,000  Level FlightAware
03:52PM 43.4280 -69.8140 204° Southwest 408 470 38,000  Level FlightAware
03:52PM 43.3550 -69.8400 195° South 420 483 38,000  Level FlightAware
03:53PM 43.2890 -69.8520 188° South 422 486 38,000  Level FlightAware
03:53PM 43.2040 -69.8660 187° South 430 495 38,000  Level FlightAware
03:54PM 43.1200 -69.8790 186° South 429 494 38,000  Level FlightAware
03:55PM 43.0380 -69.8910 186° South 431 496 38,000  Level FlightAware
03:55PM 42.9860 -69.8990 186° South 432 497 38,000  Level FlightAware
03:56PM 42.9050 -69.9100 186° South 433 498 38,000  Level FlightAware
03:57PM 42.8150 -69.9240 187° South 434 499 38,000  Level FlightAware
03:57PM 42.7330 -69.9350 186° South 435 501 38,000  Level FlightAware
03:58PM 42.6560 -69.9460 186° South 436 502 38,000  Level FlightAware
03:59PM 42.5750 -69.9580 186° South 437 503 38,000  Level FlightAware
03:59PM 42.4950 -69.9690 186° South 437 503 38,000  Level FlightAware
04:00PM 42.4030 -69.9830 186° South 437 503 38,000  Level FlightAware
04:01PM 42.3240 -69.9940 186° South 439 505 38,000  Level FlightAware
04:02PM 42.2020 -70.0120 186° South 439 505 38,000  Level FlightAware
04:02PM 42.1230 -70.0350 192° South 432 497 38,000  Level FlightAware
04:03PM 42.0500 -70.0730 201° Southwest 426 490 38,000  Level FlightAware
04:04PM 41.9750 -70.1290 209° Southwest 413 475 38,000  Level FlightAware
04:05PM 41.9010 -70.2110 220° Southwest 408 470 38,000  Level FlightAware
04:05PM 41.8540 -70.2790 227° Southwest 407 468 38,000  Level FlightAware
04:06PM 41.7880 -70.3740 227° Southwest 409 471 38,000  Level FlightAware
04:07PM 41.7260 -70.4630 227° Southwest 410 472 38,000  Level FlightAware
04:08PM 41.6330 -70.5980 227° Southwest 407 468 38,000  Level FlightAware
04:09PM 41.5820 -70.6730 228° Southwest 407 468 38,000  Level FlightAware
04:10PM 41.5220 -70.7590 227° Southwest 407 468 38,000  Level FlightAware
04:10PM 41.4900 -70.8050 227° Southwest 407 468 38,000  Level FlightAware
04:11PM 41.3930 -70.9450 227° Southwest 407 468 38,000  Level FlightAware
04:12PM 41.3340 -71.0290 227° Southwest 408 470 38,000  Level FlightAware
04:13PM 41.2840 -71.1040 228° Southwest 405 466 38,000  Level FlightAware
04:13PM 41.2480 -71.1780 237° Southwest 406 467 38,000  Level FlightAware
04:14PM 41.2180 -71.2680 246° West 402 463 38,000  Level FlightAware
04:15PM 41.1920 -71.3640 250° West 403 464 38,000  Level FlightAware
04:15PM 41.1640 -71.4630 249° West 404 465 38,000  Level FlightAware
04:16PM 41.1350 -71.5640 249° West 407 468 38,000  Level FlightAware
04:17PM 41.1070 -71.6640 250° West 407 468 38,000  Level FlightAware
04:17PM 41.0860 -71.7370 249° West 408 470 38,000  Level FlightAware
04:18PM 41.0637 -71.8156 249° West 410 472 38,000  Level FlightAware ADS-B
04:19PM 41.0337 -71.9203 249° West 410 472 38,000  Level FlightAware ADS-B
04:19PM 41.0078 -72.0107 249° West 409 471 38,000  Level FlightAware ADS-B
04:19PM 40.9976 -72.0432 247° West 408 470 38,000  Level FlightAware ADS-B
04:20PM 40.9737 -72.0867 234° Southwest 415 478 38,000  Level FlightAware ADS-B
04:20PM 40.9281 -72.1414 222° Southwest 418 481 38,000  Level FlightAware ADS-B
04:21PM 40.8636 -72.2192 222° Southwest 418 481 38,000  Level FlightAware ADS-B
04:22PM 40.8192 -72.2729 222° Southwest 419 482 38,000  Level FlightAware ADS-B
04:22PM 40.7742 -72.3281 223° Southwest 420 483 38,000  Level FlightAware ADS-B
04:23PM 40.7259 -72.3872 223° Southwest 421 484 38,000  Level FlightAware ADS-B
04:23PM 40.6680 -72.4580 223° Southwest 421 484 38,000  Level FlightAware
04:24PM 40.6459 -72.4844 222° Southwest 422 486 38,000  Level FlightAware ADS-B
04:24PM 40.5950 -72.5460 223° Southwest 423 487 38,000  Level FlightAware ADS-B
04:25PM 40.5460 -72.6060 223° Southwest 423 487 38,000  Level FlightAware
04:25PM 40.5108 -72.6477 222° Southwest 424 488 38,000  Level FlightAware ADS-B
04:26PM 40.4530 -72.7174 223° Southwest 424 488 38,000  Level FlightAware ADS-B
04:26PM 40.4080 -72.7715 222° Southwest 424 488 38,000  Level FlightAware ADS-B
04:27PM 40.3660 -72.8220 223° Southwest 423 487 38,000  Level FlightAware
04:27PM 40.3433 -72.8490 222° Southwest 423 487 38,000  Level FlightAware ADS-B
04:28PM 40.2996 -72.9013 222° Southwest 423 487 38,000  Level FlightAware ADS-B
04:28PM 40.2550 -72.9546 222° Southwest 424 488 38,000  Level FlightAware ADS-B
04:29PM 40.2110 -73.0071 222° Southwest 425 489 38,000  Level FlightAware ADS-B
04:29PM 40.1527 -73.0763 222° Southwest 426 490 38,000  Level FlightAware ADS-B
04:30PM 40.0948 -73.1450 222° Southwest 429 494 38,000  Level FlightAware ADS-B
04:30PM 40.0493 -73.1989 222° Southwest 428 493 38,000  Level FlightAware ADS-B
04:31PM 40.0030 -73.2536 222° Southwest 428 493 38,000  Level FlightAware ADS-B
04:32PM 39.9533 -73.3122 222° Southwest 428 493 38,000  Level FlightAware ADS-B
04:32PM 39.9071 -73.3666 222° Southwest 428 493 38,000  Level FlightAware ADS-B
04:33PM 39.8605 -73.4207 222° Southwest 428 493 38,000  Level FlightAware ADS-B
04:33PM 39.8127 -73.4650 215° Southwest 432 497 38,000  Level FlightAware ADS-B
04:34PM 39.7540 -73.5150 213° Southwest 435 501 38,000  Level FlightAware ADS-B
04:34PM 39.6968 -73.5550 208° Southwest 437 503 38,000  Level FlightAware ADS-B
04:35PM 39.6379 -73.5882 203° Southwest 440 506 38,000  Level FlightAware ADS-B
04:35PM 39.5771 -73.6213 203° Southwest 441 507 38,000  Level FlightAware ADS-B
04:36PM 39.5180 -73.6544 203° Southwest 441 507 38,000  Level FlightAware ADS-B
04:36PM 39.4592 -73.6872 203° Southwest 443 510 38,000  Level FlightAware ADS-B
04:37PM 39.3972 -73.7221 204° Southwest 442 509 38,000  Level FlightAware ADS-B
04:37PM 39.3693 -73.7380 204° Southwest 442 509 38,000  Level FlightAware ADS-B
04:38PM 39.3198 -73.7712 207° Southwest 442 509 38,000  Level FlightAware ADS-B
04:38PM 39.2649 -73.8105 209° Southwest 443 510 38,000  Level FlightAware ADS-B
04:39PM 39.2095 -73.8499 209° Southwest 444 511 38,000  Level FlightAware ADS-B
04:39PM 39.1560 -73.8883 209° Southwest 444 511 38,000  Level FlightAware ADS-B
04:40PM 39.1018 -73.9273 209° Southwest 444 511 38,000  Level FlightAware ADS-B
04:40PM 39.0470 -73.9670 209° Southwest 442 509 38,000  Level FlightAware ADS-B
04:41PM 38.9904 -74.0082 210° Southwest 443 510 38,000  Level FlightAware ADS-B
04:41PM 38.9293 -74.0527 210° Southwest 442 509 38,000  Level FlightAware ADS-B
04:42PM 38.8715 -74.0950 210° Southwest 443 510 38,000  Level FlightAware ADS-B
04:42PM 38.8152 -74.1360 210° Southwest 444 511 38,000  Level FlightAware ADS-B
04:43PM 38.7595 -74.1768 210° Southwest 445 512 38,000  Level FlightAware ADS-B
04:44PM 38.6708 -74.2418 210° Southwest 445 512 38,000  Level FlightAware ADS-B
04:44PM 38.6129 -74.2844 210° Southwest 447 514 38,000  Level FlightAware ADS-B
04:45PM 38.5416 -74.3379 210° Southwest 449 517 38,000  Level FlightAware ADS-B
04:46PM 38.4436 -74.4264 215° Southwest 448 516 38,000  Level FlightAware ADS-B
04:46PM 38.3827 -74.4812 215° Southwest 447 514 38,000  Level FlightAware ADS-B
04:47PM 38.3310 -74.5277 215° Southwest 446 513 38,000  Level FlightAware ADS-B
04:47PM 38.2770 -74.5760 215° Southwest 446 513 38,000  Level FlightAware ADS-B
04:48PM 38.2119 -74.6343 215° Southwest 446 513 38,000  Level FlightAware ADS-B
04:49PM 38.1210 -74.7160 215° Southwest 441 507 38,000  Level FlightAware
04:49PM 38.0825 -74.7497 215° Southwest 446 513 38,000  Level FlightAware ADS-B
04:50PM 38.0302 -74.7961 215° Southwest 447 514 38,000  Level FlightAware ADS-B
04:50PM 37.9775 -74.8429 215° Southwest 446 513 38,000  Level FlightAware ADS-B
04:51PM 37.9250 -74.8894 215° Southwest 446 513 38,000  Level FlightAware ADS-B
04:51PM 37.8701 -74.9379 215° Southwest 448 516 38,000  Level FlightAware ADS-B
04:52PM 37.8160 -74.9857 215° Southwest 449 517 38,000  Level FlightAware ADS-B
04:53PM 37.7590 -75.0350 214° Southwest 451 519 38,000  Level FlightAware
04:53PM 37.6960 -75.0910 215° Southwest 452 520 38,000  Level FlightAware
04:54PM 37.6139 -75.1631 215° Southwest 450 518 38,000  Level FlightAware ADS-B
04:54PM 37.5622 -75.2083 215° Southwest 450 518 38,000  Level FlightAware ADS-B
04:55PM 37.5108 -75.2533 215° Southwest 450 518 38,000  Level FlightAware ADS-B
04:55PM 37.4578 -75.2993 215° Southwest 450 518 38,000  Level FlightAware ADS-B
04:56PM 37.4044 -75.3458 215° Southwest 453 521 38,000  Level FlightAware ADS-B
04:57PM 37.3500 -75.3930 215° Southwest 452 520 38,000  Level FlightAware
04:57PM 37.2830 -75.4510 215° Southwest 452 520 38,000  Level FlightAware
04:58PM 37.2100 -75.5140 215° Southwest 450 518 38,000  Level FlightAware
04:59PM 37.1390 -75.5540 204° Southwest 454 522 38,000  Level FlightAware
04:59PM 37.0510 -75.5860 196° South 453 521 38,000  Level FlightAware
05:00PM 36.9633 -75.6184 196° South 455 524 38,000  Level FlightAware ADS-B
05:01PM 36.8999 -75.6425 197° South 454 522 38,000  Level FlightAware ADS-B
05:01PM 36.8304 -75.6766 201° Southwest 454 522 38,000  Level FlightAware ADS-B
05:01PM 36.7851 -75.7007 203° Southwest 454 522 38,000  Level FlightAware ADS-B
05:02PM 36.7481 -75.7305 213° Southwest 451 519 38,000  Level FlightAware ADS-B
05:03PM 36.6753 -75.8006 218° Southwest 451 519 38,000  Level FlightAware ADS-B
05:03PM 36.6100 -75.8620 217° Southwest 443 510 38,000  Level FlightAware
05:04PM 36.5440 -75.9220 216° Southwest 441 507 38,000  Level FlightAware
05:05PM 36.4750 -75.9850 216° Southwest 446 513 38,000  Level FlightAware
05:05PM 36.4010 -76.0540 217° Southwest 440 506 38,000  Level FlightAware
05:06PM 36.3340 -76.1160 217° Southwest 445 512 38,000  Level FlightAware
05:07PM 36.2630 -76.1800 216° Southwest 445 512 38,000  Level FlightAware
05:07PM 36.1930 -76.2440 216° Southwest 441 507 38,000  Level FlightAware
05:08PM 36.1170 -76.3130 216° Southwest 442 509 38,000  Level FlightAware
05:09PM 36.0330 -76.3900 217° Southwest 442 509 38,000  Level FlightAware
05:10PM 35.9620 -76.4540 216° Southwest 442 509 38,000  Level FlightAware
05:10PM 35.8950 -76.5150 216° Southwest 440 506 38,000  Level FlightAware
05:12PM 35.8030 -76.6000 217° Southwest 440 506 38,000  Level FlightAware
05:12PM 35.7540 -76.6460 217° Southwest 440 506 38,000  Level FlightAware
05:13PM 35.6850 -76.7100 217° Southwest 440 506 38,000  Level FlightAware
05:14PM 35.6350 -76.7560 217° Southwest 440 506 38,000  Level FlightAware
05:14PM 35.5690 -76.8170 217° Southwest 440 506 38,000  Level FlightAware
05:15PM 35.5190 -76.8640 217° Southwest 440 506 38,000  Level FlightAware
05:16PM 35.4520 -76.9250 217° Southwest 440 506 38,000  Level FlightAware
05:16PM 35.4030 -76.9710 217° Southwest 440 506 38,000  Level FlightAware
05:17PM 35.3360 -77.0320 217° Southwest 440 506 38,000  Level FlightAware
05:18PM 35.2870 -77.0780 217° Southwest 440 506 38,000  Level FlightAware
05:19PM 35.2200 -77.1390 217° Southwest 440 506 38,000  Level FlightAware
05:19PM 35.1700 -77.1850 217° Southwest 440 506 38,000  Level FlightAware
05:20PM 35.1210 -77.2310 218° Southwest 440 506 38,000  Level FlightAware
05:21PM 34.8292 -77.4594 218° Southwest 463 533 38,000  Level Washington Center
05:22PM 34.7253 -77.5556 217° Southwest 463 533 38,000  Level Washington Center
05:28PM 34.0280 -77.9680 217° Southwest 471 542 38,000  Level FlightAware
05:29PM 33.9260 -77.9980 194° South 472 543 38,000  Level FlightAware
05:29PM 33.8250 -78.0270 193° South 470 541 38,000  Level FlightAware
05:30PM 33.7410 -78.0510 193° South 467 537 38,000  Level FlightAware
05:31PM 33.6360 -78.0810 193° South 467 537 38,000  Level FlightAware
05:32PM 33.5700 -78.0990 193° South 467 537 38,000  Level FlightAware
05:32PM 33.4750 -78.1270 194° South 468 539 38,000  Level FlightAware
05:33PM 33.3790 -78.1550 194° South 467 537 38,000  Level FlightAware
05:34PM 33.2570 -78.1900 193° South 468 539 38,000  Level FlightAware
05:35PM 33.1770 -78.2120 193° South 467 537 38,000  Level FlightAware
05:35PM 33.0940 -78.2360 194° South 467 537 38,000  Level FlightAware
05:36PM 32.9920 -78.2650 193° South 469 540 38,000  Level FlightAware
05:37PM 32.9100 -78.2880 193° South 469 540 38,000  Level FlightAware
05:37PM 32.8140 -78.3150 193° South 469 540 38,000  Level FlightAware
05:38PM 32.7330 -78.3380 193° South 471 542 38,000  Level FlightAware
05:39PM 32.6500 -78.3610 193° South 472 543 38,000  Level FlightAware
05:40PM 32.5500 -78.3890 193° South 470 541 38,000  Level FlightAware
05:41PM 32.4430 -78.4180 193° South 468 539 38,000  Level FlightAware
05:41PM 32.3250 -78.4520 194° South 465 535 38,000  Level FlightAware
05:42PM 32.1970 -78.4890 194° South 467 537 38,000  Level FlightAware
05:44PM 32.1970 -78.4890 194° South 466 536 38,000  Level FlightAware
05:44PM 32.1310 -78.5070 193° South 466 536 38,000  Level FlightAware
05:45PM 32.0650 -78.5250 193° South 466 536 38,000  Level FlightAware
05:46PM 31.9830 -78.5480 193° South 466 536 38,000  Level FlightAware
05:46PM 31.9190 -78.5650 193° South 466 536 38,000  Level FlightAware
05:47PM 31.8550 -78.5830 193° South 466 536 38,000  Level FlightAware
05:48PM 31.7650 -78.6070 193° South 466 536 38,000  Level FlightAware
05:48PM 31.7010 -78.6240 193° South 466 536 38,000  Level FlightAware
05:49PM 31.6150 -78.6480 193° South 466 536 38,000  Level FlightAware
05:50PM 31.5550 -78.6640 193° South 466 536 38,000  Level FlightAware
05:50PM 31.4670 -78.6880 193° South 466 536 38,000  Level FlightAware
05:51PM 31.4060 -78.7040 193° South 466 536 38,000  Level FlightAware
05:52PM 31.3420 -78.7210 193° South 466 536 38,000  Level FlightAware
05:52PM 31.2560 -78.7450 193° South 466 536 38,000  Level FlightAware
05:53PM 31.1890 -78.7630 193° South 466 536 38,000  Level FlightAware
05:54PM 30.7678 -78.9011 193° South 467 537 38,000  Level Jacksonville Center
05:56PM 30.5169 -78.9717 194° South 452 520 38,000  Level Miami Center
05:57PM 30.3850 -79.0100 194° South 470 541 38,000  Level Miami Center
05:58PM 30.2611 -79.0625 200° South 475 547 38,000  Level Miami Center
05:59PM 30.1417 -79.1178 202° Southwest 480 552 38,000  Level Miami Center
06:00PM 30.0200 -79.1656 199° South 480 552 38,000  Level Miami Center
06:01PM 29.9022 -79.2250 204° Southwest 474 545 38,000  Level Miami Center
06:02PM 29.7803 -79.2869 204° Southwest 469 540 38,000  Level Miami Center
06:03PM 29.6683 -79.3586 209° Southwest 469 540 38,000  Level Miami Center
06:04PM 29.5567 -79.4275 208° Southwest 469 540 38,000  Level Miami Center
06:05PM 29.4347 -79.4769 199° South 464 534 38,000  Level Miami Center
06:06PM 29.3150 -79.5194 197° South 464 534 38,000  Level Miami Center
06:07PM 29.1931 -79.5686 199° South 464 534 38,000  Level Miami Center
06:08PM 29.0672 -79.6083 195° South 464 534 38,000  Level Miami Center
06:09PM 28.9414 -79.6503 196° South 464 534 38,000  Level Miami Center
06:10PM 28.8172 -79.6922 196° South 464 534 38,000  Level Miami Center
06:11PM 28.6936 -79.7292 195° South 464 534 38,000  Level Miami Center
06:12PM 28.5619 -79.7378 183° South 464 534 38,000  Level Miami Center
06:13PM 28.4344 -79.7461 183° South 464 534 38,000  Level Miami Center
06:19PM 27.6410 -79.8190 183° South 38,000  Level FlightAware
06:21PM 27.4250 -79.8470 187° South 472 543 38,000  Level FlightAware
06:21PM 27.3050 -79.8640 187° South 470 541 38,000  Level FlightAware
06:22PM 27.2110 -79.8780 188° South 469 540 38,000  Level FlightAware
06:23PM 27.0810 -79.8980 188° South 469 540 38,000  Level FlightAware
06:23PM 27.0460 -79.9120 200° South 467 537 38,000  Level FlightAware
06:24PM 26.9680 -79.9530 205° Southwest 472 543 38,000  Level FlightAware
06:25PM 26.8890 -79.9940 205° Southwest 471 542 38,000  Level FlightAware
06:25PM 26.8090 -80.0350 205° Southwest 472 543 38,000  Level FlightAware
06:26PM 26.7310 -80.0830 209° Southwest 470 541 38,000  Level FlightAware
06:27PM 26.6580 -80.1310 210° Southwest 469 540 38,000  Level FlightAware
06:27PM 26.5760 -80.1860 211° Southwest 465 535 38,000  Level FlightAware
06:28PM 26.5190 -80.2250 211° Southwest 465 535 38,000  Level FlightAware
06:29PM 26.4170 -80.2930 211° Southwest 468 539 38,000  Level FlightAware
06:30PM 26.3440 -80.3420 211° Southwest 467 537 38,000  Level FlightAware
06:30PM 26.2780 -80.3870 211° Southwest 461 531 38,000  Level FlightAware
06:31PM 26.2030 -80.4330 209° Southwest 462 532 38,000  Level FlightAware
06:31PM 26.1210 -80.4700 202° Southwest 472 543 38,000  Level FlightAware
06:32PM 26.0410 -80.5060 202° Southwest 466 536 38,000  Level FlightAware
06:33PM 25.9580 -80.5430 202° Southwest 466 536 38,000  Level FlightAware
06:34PM 25.8710 -80.5900 206° Southwest 461 531 38,000  Level FlightAware
06:34PM 25.8270 -80.6350 223° Southwest 459 528 38,000  Level FlightAware
06:35PM 25.7520 -80.7130 223° Southwest 466 536 38,000  Level FlightAware
06:35PM 25.6820 -80.7620 212° Southwest 473 544 38,000  Level FlightAware
06:36PM 25.6000 -80.8270 216° Southwest 461 531 38,000  Level FlightAware
06:37PM 25.5390 -80.8940 225° Southwest 470 541 38,000  Level FlightAware
06:38PM 25.4680 -80.9700 224° Southwest 471 542 38,000 -360 Level FlightAware
06:38PM 25.4050 -81.0370 224° Southwest 471 542 37,500 -840 Descending FlightAware
06:39PM 25.3500 -81.0970 225° Southwest 472 543 37,000 -960 Descending FlightAware
06:40PM 25.2490 -81.2040 224° Southwest 473 544 35,900 -1,080 Descending FlightAware
06:41PM 25.1880 -81.2700 224° Southwest 475 547 35,200 -1,080 Descending FlightAware
06:41PM 25.1130 -81.3500 224° Southwest 471 542 34,400 -1,020 Descending FlightAware
06:42PM 25.0520 -81.4150 224° Southwest 470 541 33,800 -960 Descending FlightAware
06:43PM 24.9910 -81.4800 224° Southwest 458 527 33,200 -1,020 Descending FlightAware
06:43PM 24.9280 -81.5460 224° Southwest 448 516 32,500 -1,080 Descending FlightAware
06:44PM 24.8700 -81.6080 224° Southwest 446 513 31,800 -1,080 Descending FlightAware
06:45PM 24.8070 -81.6740 224° Southwest 444 511 31,100 -960 Descending FlightAware
06:45PM 24.7640 -81.7200 224° Southwest 443 510 30,600 -900 Descending FlightAware
06:46PM 24.6930 -81.7940 223° Southwest 431 496 30,000 -480 Descending FlightAware
06:47PM 24.6340 -81.8570 224° Southwest 432 497 30,000 -960 Level FlightAware
06:47PM 24.5690 -81.9250 224° Southwest 429 494 28,700 -1,860 Descending FlightAware
06:48PM 24.5090 -81.9880 224° Southwest 425 489 27,400 -1,800 Descending FlightAware
06:49PM 24.4470 -82.0530 224° Southwest 422 486 26,200 -1,740 Descending FlightAware
06:50PM 24.3900 -82.1120 223° Southwest 411 473 25,000 -1,800 Descending FlightAware
06:50PM 24.3410 -82.1640 224° Southwest 408 470 24,000 -1,560 Descending FlightAware
06:51PM 24.2990 -82.2080 224° Southwest 404 465 23,200 -900 Descending FlightAware
06:52PM 24.2140 -82.2970 224° Southwest 22,000 -720 Descending FlightAware
06:52PM 24.1540 -82.3590 223° Southwest 388 447 22,000  Level FlightAware
06:53PM 24.0970 -82.4190 224° Southwest 388 447 22,000  Level FlightAware
06:54PM 24.0570 -82.4610 224° Southwest 388 447 22,000  Level FlightAware
06:55PM 24.0040 -82.5180 224° Southwest 388 447 22,000  Level FlightAware
06:55PM 23.9640 -82.5600 224° Southwest 388 447 22,000  Level FlightAware
06:56PM 23.9100 -82.6160 223° Southwest 388 447 22,000  Level FlightAware
07:01PM 23.4006 -82.5012 172° South  Level Estimated
07:02PM 23.2844 -82.4751 175° South  Level Estimated
07:03PM 23.1682 -82.4491 180° South  Level Estimated
07:04PM 23.0521 -82.4004 170° South  Level FlightAware Approximate
07:05PM 22.9891 -82.4091 180° South  Level Estimated
07:06PM 22.9891 -82.4091 180° South  Level Estimated
07:07PM 22.9891 -82.4091 180° South  Level Estimated
07:08PM 22.9891 -82.4091 180° South  Level Estimated
07:09PM 22.9891 -82.4091 180° South  Level Estimated
07:10PM 22.9891 -82.4091 180° South  Level Estimated
07:11PM 22.9891 -82.4091 180° South  Level Estimated
07:12PM 22.9891 -82.4091 180° South  Level Estimated
07:13PM 22.9891 -82.4091 180° South  Level Estimated
07:14PM 22.9891 -82.4091 180° South  Level Estimated
07:15PM 22.9891 -82.4091 180° South  Level Estimated
07:16PM 22.9891 -82.4091 180° South  Level Estimated
07:17PM 22.9891 -82.4091 180° South  Level Estimated
07:18PM 22.9891 -82.4091 180° South  Level Estimated
07:19PM 22.9891 -82.4091 180° South  Level Estimated
07:20PM 22.9891 -82.4091 180° South  Level Estimated
07:21PM 22.9891 -82.4091 180° South  Level Estimated
07:22PM 22.9891 -82.4091 180° South  Level Estimated
07:23PM 22.9891 -82.4091 180° South  Level Estimated